Time;durP1;ratioP1;P1;durP2;ratioP2;P2;SDS_P1;SDS_P2;PMS_P1;PMS_P2;Temp;Humidity;BMP_temperature;BMP_pressure;BME280_temperature;BME280_humidity;BME280_pressure;Samples;Min_cycle;Max_cycle;Signal;HPM_P1;HPM_P2
2022/11/11 00:02:04;;;;;;;;;12.00;10.75;;;;;11.63;70.30;102345.78;4957038;28;45350;-57
2022/11/11 00:04:30;;;;;;;;;9.00;9.00;;;;;11.64;70.26;102351.06;4958021;28;45422;-59
2022/11/11 00:06:55;;;;;;;;;9.25;8.00;;;;;11.43;70.31;102324.22;4957909;28;45404;-58
2022/11/11 00:09:21;;;;;;;;;9.25;8.25;;;;;11.57;70.29;102339.09;4958363;28;45447;-58
2022/11/11 00:11:46;;;;;;;;;8.50;7.00;;;;;11.60;70.56;102346.13;4958120;28;45649;-58
2022/11/11 00:14:12;;;;;;;;;8.25;5.00;;;;;11.62;70.36;102347.66;4940300;28;46770;-57
2022/11/11 00:25:06;;;;;;;;;9.60;9.00;;;;;11.51;71.17;102335.16;4956019;28;45950;-58
2022/11/11 00:27:32;;;;;;;;;11.00;11.00;;;;;11.51;71.14;102346.16;4957426;28;45524;-58
2022/11/11 00:29:57;;;;;;;;;13.00;9.25;;;;;11.47;71.91;102338.47;4957889;28;45364;-58
2022/11/11 00:32:23;;;;;;;;;10.00;9.00;;;;;11.51;71.53;102350.81;4957669;28;45391;-58
2022/11/11 00:37:53;;;;;;;;;11.20;9.00;;;;;11.39;71.97;102314.59;4935728;28;45373;-57
2022/11/11 00:40:18;;;;;;;;;9.75;8.00;;;;;11.47;71.47;102332.97;4935648;28;45561;-56
2022/11/11 00:42:44;;;;;;;;;10.75;10.75;;;;;11.45;71.75;102338.63;4945906;28;45569;-56
2022/11/11 00:45:09;;;;;;;;;11.00;9.00;;;;;11.48;71.49;102356.66;4939297;28;46004;-57
2022/11/11 00:53:08;;;;;;;;;12.00;12.00;;;;;11.33;71.71;102367.53;4957571;28;45428;-58
2022/11/11 00:55:34;;;;;;;;;10.00;10.00;;;;;11.32;72.25;102366.69;4956326;28;45527;-57
2022/11/11 00:57:59;;;;;;;;;13.25;11.00;;;;;11.38;71.66;102387.13;4976586;28;45330;-57
2022/11/11 01:00:25;;;;;;;;;10.75;10.50;;;;;11.07;71.71;102328.31;4976610;28;45334;-56
2022/11/11 01:02:50;;;;;;;;;14.25;12.00;;;;;11.35;71.89;102376.47;4977074;28;45386;-56
2022/11/11 01:05:16;;;;;;;;;9.00;9.00;;;;;11.31;71.62;102381.47;4976652;28;46172;-57
2022/11/11 01:07:41;;;;;;;;;11.00;10.25;;;;;11.23;72.16;102379.63;4976479;28;45388;-58
2022/11/11 01:10:07;;;;;;;;;10.50;9.75;;;;;11.23;72.14;102370.50;4976712;28;45411;-58
2022/11/11 01:12:33;;;;;;;;;15.50;11.25;;;;;11.25;72.37;102374.78;4976558;28;45572;-58
2022/11/11 01:14:58;;;;;;;;;10.25;10.25;;;;;11.27;71.73;102371.00;4975420;28;45345;-57
2022/11/11 01:17:24;;;;;;;;;7.00;7.00;;;;;11.13;72.32;102340.47;4976460;28;45364;-57
2022/11/11 01:19:49;;;;;;;;;8.50;5.50;;;;;11.02;72.40;102329.84;4976428;28;45397;-57
2022/11/11 01:22:15;;;;;;;;;12.50;9.50;;;;;11.25;71.76;102363.78;4976762;28;45390;-56
2022/11/11 01:24:40;;;;;;;;;8.00;8.00;;;;;11.34;71.93;102372.00;4976190;28;46669;-55
2022/11/11 01:27:06;;;;;;;;;10.50;7.75;;;;;11.06;72.07;102320.22;4976284;28;45426;-58
2022/11/11 01:29:31;;;;;;;;;10.50;9.50;;;;;11.25;71.56;102350.06;4976877;28;45659;-58
2022/11/11 01:31:57;;;;;;;;;13.50;9.75;;;;;11.36;71.46;102359.81;4976742;28;45588;-59
2022/11/11 01:34:22;;;;;;;;;15.50;11.00;;;;;11.38;71.25;102365.13;4976460;28;45239;-59
2022/11/11 01:36:48;;;;;;;;;8.25;7.00;;;;;11.20;71.01;102333.22;4975971;28;45435;-57
2022/11/11 01:39:13;;;;;;;;;17.00;12.00;;;;;11.37;71.32;102357.91;4975431;28;45390;-58
2022/11/11 01:41:39;;;;;;;;;17.25;15.50;;;;;11.37;71.10;102367.00;4976588;28;45351;-57
2022/11/11 01:44:10;;;;;;;;;9.25;9.00;;;;;11.36;71.53;102362.53;4975989;28;46516;-56
2022/11/11 01:46:58;;;;;;;;;11.00;10.00;;;;;11.37;71.16;102367.00;4976301;28;45546;-57
2022/11/11 01:49:39;;;;;;;;;10.60;8.80;;;;;11.24;70.85;102359.34;4975342;28;45373;-57
2022/11/11 01:52:05;;;;;;;;;12.60;10.20;;;;;11.23;71.17;102368.63;4975042;28;45744;-56
2022/11/11 01:54:39;;;;;;;;;11.40;10.40;;;;;11.29;71.20;102371.66;4974969;28;45378;-57
2022/11/11 01:57:09;;;;;;;;;11.80;8.80;;;;;11.34;71.58;102380.25;4963574;28;45343;-56
2022/11/11 01:59:34;;;;;;;;;8.40;8.40;;;;;11.38;71.45;102396.22;4956718;28;45435;-57
2022/11/11 02:02:00;;;;;;;;;14.75;12.25;;;;;11.26;71.82;102383.88;4955526;28;45801;-58
2022/11/11 02:07:10;;;;;;;;;10.40;10.40;;;;;11.33;70.84;102381.28;4955275;28;45388;-60
2022/11/11 02:09:37;;;;;;;;;10.25;9.25;;;;;11.31;71.10;102380.63;4956847;28;45371;-56
2022/11/11 02:14:50;;;;;;;;;9.00;9.00;;;;;11.31;70.93;102388.88;4955182;28;45539;-59
2022/11/11 02:17:16;;;;;;;;;11.20;10.00;;;;;11.30;70.97;102377.00;4954944;28;45476;-57
2022/11/11 02:20:02;;;;;;;;;9.75;8.00;;;;;11.24;71.07;102373.06;4956239;28;45350;-57
2022/11/11 02:22:59;;;;;;;;;9.20;8.00;;;;;11.27;71.42;102371.88;4955116;28;45360;-58
2022/11/11 02:25:26;;;;;;;;;15.40;9.40;;;;;11.25;70.83;102362.91;4953442;28;45404;-58
2022/11/11 02:27:52;;;;;;;;;11.40;10.20;;;;;11.24;71.33;102372.22;4954911;28;45487;-57
2022/11/11 02:30:18;;;;;;;;;12.25;10.00;;;;;11.23;71.18;102379.63;4954700;28;45366;-58
2022/11/11 02:32:44;;;;;;;;;11.40;10.80;;;;;10.98;71.23;102332.09;4956166;28;45588;-54
2022/11/11 02:35:18;;;;;;;;;16.60;12.60;;;;;11.02;70.96;102335.34;4955903;28;45421;-57
2022/11/11 02:37:49;;;;;;;;;13.20;11.00;;;;;10.90;71.43;102321.13;4928049;28;47894;-57
2022/11/11 02:40:25;;;;;;;;;10.80;9.80;;;;;10.51;71.27;102252.22;4967379;28;45912;-57
2022/11/11 02:42:50;;;;;;;;;9.00;8.00;;;;;11.19;70.82;102363.63;4971208;28;45317;-56
2022/11/11 02:45:16;;;;;;;;;8.00;7.00;;;;;11.17;70.88;102361.09;4955827;28;46532;-56
2022/11/11 02:47:41;;;;;;;;;15.50;13.00;;;;;11.10;70.84;102357.31;4955208;28;45344;-56
2022/11/11 02:50:07;;;;;;;;;9.00;8.50;;;;;11.10;71.52;102366.41;4956058;28;45414;-57
2022/11/11 02:52:33;;;;;;;;;13.40;10.40;;;;;11.15;71.30;102365.03;4954457;28;45682;-57
2022/11/11 02:54:59;;;;;;;;;9.25;8.50;;;;;11.18;71.00;102359.16;4955763;28;45906;-55
2022/11/11 02:57:24;;;;;;;;;11.75;9.00;;;;;11.22;71.16;102358.63;4968218;28;45320;-56
2022/11/11 02:59:50;;;;;;;;;10.75;8.50;;;;;11.27;70.90;102371.00;4975370;28;45574;-57
2022/11/11 03:02:15;;;;;;;;;11.75;10.00;;;;;11.28;70.80;102367.22;4975539;28;45268;-56
2022/11/11 03:04:40;;;;;;;;;10.50;9.50;;;;;11.30;70.39;102365.16;4974725;28;45981;-57
2022/11/11 03:07:06;;;;;;;;;10.25;10.25;;;;;11.27;70.32;102368.25;4975007;28;45284;-57
2022/11/11 03:09:31;;;;;;;;;12.25;12.25;;;;;11.33;70.46;102368.41;4975320;28;45731;-57
2022/11/11 03:11:57;;;;;;;;;10.25;8.50;;;;;11.29;70.98;102357.94;4975231;28;45630;-57
2022/11/11 03:14:23;;;;;;;;;11.00;11.00;;;;;11.33;70.39;102353.81;4974829;28;45383;-55
2022/11/11 03:19:32;;;;;;;;;9.40;8.60;;;;;11.34;70.21;102341.75;4974708;28;45312;-57
2022/11/11 03:21:58;;;;;;;;;10.75;9.75;;;;;11.33;70.22;102359.28;4975004;28;45312;-56
2022/11/11 03:25:36;;;;;;;;;10.50;10.50;;;;;11.33;70.43;102353.81;4974802;28;45315;-56
2022/11/11 03:27:09;;;;;;;;;10.20;10.00;;;;;11.33;70.06;102351.94;4974772;28;45666;-55
2022/11/11 03:29:35;;;;;;;;;11.25;8.50;;;;;11.06;70.47;102320.22;4975156;28;45306;-56
2022/11/11 03:32:00;;;;;;;;;12.75;9.00;;;;;11.19;70.11;102359.00;4975040;28;45570;-55
2022/11/11 03:34:26;;;;;;;;;8.25;8.00;;;;;10.94;70.51;102323.34;4973607;28;47204;-57
2022/11/11 03:39:35;;;;;;;;;11.20;11.20;;;;;10.91;70.42;102306.34;4974968;28;45464;-57
2022/11/11 03:42:01;;;;;;;;;10.50;9.50;;;;;11.03;71.32;102350.78;4973656;28;45368;-57
2022/11/11 03:44:27;;;;;;;;;10.25;9.75;;;;;11.11;70.83;102359.88;4974932;28;46030;-55
2022/11/11 03:46:54;;;;;;;;;10.80;8.20;;;;;11.05;70.17;102363.31;4973217;28;45512;-56
2022/11/11 03:49:19;;;;;;;;;10.60;9.40;;;;;10.98;70.82;102362.31;4975056;28;45474;-57
2022/11/11 03:51:45;;;;;;;;;11.75;10.75;;;;;11.00;70.60;102368.50;4974861;28;45552;-57
2022/11/11 03:54:10;;;;;;;;;11.25;9.00;;;;;10.91;70.56;102356.69;4974800;28;45470;-58
2022/11/11 03:56:36;;;;;;;;;11.25;11.25;;;;;10.96;71.28;102365.25;4974630;28;45343;-58
2022/11/11 03:59:01;;;;;;;;;15.75;12.25;;;;;10.80;71.33;102343.28;4975492;28;45423;-56
2022/11/11 04:12:23;;;;;;;;;9.20;8.60;;;;;10.95;70.69;102382.75;4978007;28;45453;-55
2022/11/11 04:17:32;;;;;;;;;8.60;8.60;;;;;10.81;71.11;102381.59;4977906;28;45603;-55
2022/11/11 04:22:41;;;;;;;;;9.00;6.60;;;;;10.53;70.97;102338.03;4977923;28;45280;-55
2022/11/11 04:29:27;;;;;;;;;13.40;9.60;;;;;10.92;70.79;102388.59;4977320;28;45354;-56
2022/11/11 04:30:36;;;;;;;;;8.20;8.00;;;;;10.95;71.19;102380.00;4977588;28;45427;-57
2022/11/11 04:33:02;;;;;;;;;11.25;10.00;;;;;10.96;71.68;102375.38;4977582;28;45331;-56
2022/11/11 04:35:27;;;;;;;;;11.25;9.00;;;;;10.96;71.11;102380.88;4977548;28;46071;-57
2022/11/11 04:41:02;;;;;;;;;11.75;10.00;;;;;10.97;71.06;102375.22;4977378;28;45393;-59
2022/11/11 04:43:22;;;;;;;;;15.80;10.00;;;;;10.97;71.65;102372.47;4977462;28;45431;-58
2022/11/11 04:45:48;;;;;;;;;12.25;12.25;;;;;10.97;71.65;102375.22;4977403;28;46335;-58
2022/11/11 04:48:15;;;;;;;;;15.50;12.00;;;;;10.97;71.70;102371.59;4977008;28;45350;-56
2022/11/11 04:50:42;;;;;;;;;12.00;10.80;;;;;11.03;71.66;102383.75;4977253;28;45350;-57
2022/11/11 04:53:10;;;;;;;;;12.80;11.40;;;;;10.77;72.28;102343.66;5008916;28;45485;-55
2022/11/11 04:58:23;;;;;;;;;10.80;9.60;;;;;11.06;72.13;102380.69;4957061;28;45348;-58
2022/11/11 05:00:48;;;;;;;;;11.80;11.20;;;;;10.82;72.14;102346.72;4956629;28;45511;-58
2022/11/11 05:03:17;;;;;;;;;12.75;10.50;;;;;11.03;71.77;102368.16;4957712;28;45568;-59
2022/11/11 05:11:15;;;;;;;;;10.00;10.00;;;;;11.07;71.67;102372.28;4956827;28;45341;-58
2022/11/11 05:21:56;;;;;;;;;7.60;7.60;;;;;10.91;71.58;102350.31;4957432;28;45400;-58
2022/11/11 05:27:05;;;;;;;;;14.20;12.00;;;;;10.81;71.20;102312.91;4956952;28;45915;-58
2022/11/11 05:29:31;;;;;;;;;13.25;8.75;;;;;11.09;71.26;102363.81;4957087;28;45366;-58
2022/11/11 05:31:56;;;;;;;;;12.50;10.00;;;;;10.93;70.67;102349.09;4956760;28;45476;-56
2022/11/11 05:34:22;;;;;;;;;11.75;11.75;;;;;11.04;71.53;102371.75;4957107;28;45392;-57
2022/11/11 05:36:47;;;;;;;;;13.50;12.00;;;;;11.00;71.28;102370.38;4954717;28;45881;-54
2022/11/11 05:39:13;;;;;;;;;14.25;11.75;;;;;11.02;71.90;102380.16;4956894;28;45430;-54
2022/11/11 05:41:38;;;;;;;;;11.00;9.25;;;;;11.01;71.49;102383.09;4956369;28;45614;-57
2022/11/11 05:44:04;;;;;;;;;12.50;9.00;;;;;10.87;71.73;102348.97;4957049;28;45609;-58
2022/11/11 05:46:29;;;;;;;;;13.75;10.50;;;;;11.03;71.05;102392.88;4954917;28;46115;-58
2022/11/11 05:51:39;;;;;;;;;8.20;8.20;;;;;11.02;70.60;102379.31;4956227;28;45458;-61
2022/11/11 05:54:04;;;;;;;;;8.25;7.25;;;;;10.94;71.05;102370.03;4957190;28;45490;-58
2022/11/11 05:56:30;;;;;;;;;10.25;10.25;;;;;10.90;70.33;102354.97;4960853;28;46077;-55
2022/11/11 05:58:55;;;;;;;;;11.50;8.50;;;;;10.97;70.78;102366.97;4975596;28;45359;-55
2022/11/11 06:01:21;;;;;;;;;10.50;10.00;;;;;11.01;70.42;102372.97;4975955;28;45419;-56
2022/11/11 06:03:46;;;;;;;;;10.25;9.25;;;;;10.91;70.39;102353.06;5007765;28;45559;-55
2022/11/11 06:06:12;;;;;;;;;10.25;8.75;;;;;11.00;70.51;102367.63;4975591;28;45761;-56
2022/11/11 06:08:38;;;;;;;;;8.50;8.50;;;;;10.91;70.39;102362.16;5006979;28;45461;-53
2022/11/11 06:11:03;;;;;;;;;8.25;7.75;;;;;11.01;70.12;102374.84;4975921;28;45237;-58
2022/11/11 06:13:29;;;;;;;;;9.00;6.75;;;;;10.95;70.31;102385.50;4975028;28;45625;-57
2022/11/11 06:15:55;;;;;;;;;7.00;4.00;;;;;10.88;69.97;102384.47;4975736;28;46310;-56
2022/11/11 06:18:21;;;;;;;;;7.00;5.20;;;;;10.82;70.19;102380.53;4975483;28;45355;-54
2022/11/11 06:20:54;;;;;;;;;9.50;7.00;;;;;10.58;70.84;102341.09;4975310;28;45395;-53
2022/11/11 06:23:20;;;;;;;;;10.60;8.20;;;;;10.15;69.88;102269.88;4975354;28;45337;-56
2022/11/11 06:28:29;;;;;;;;;9.00;8.20;;;;;10.64;70.00;102360.66;4975798;28;45320;-56
2022/11/11 06:30:55;;;;;;;;;9.75;6.25;;;;;10.86;70.13;102392.03;4975344;28;45361;-58
2022/11/11 06:33:20;;;;;;;;;8.75;7.50;;;;;10.85;70.41;102395.81;4959628;28;45338;-56
2022/11/11 06:35:46;;;;;;;;;9.00;7.50;;;;;10.50;71.11;102351.19;4934413;28;45512;-58
2022/11/11 06:38:12;;;;;;;;;6.25;5.00;;;;;10.81;71.02;102406.31;4954370;28;45398;-55
2022/11/11 06:40:37;;;;;;;;;8.00;5.00;;;;;10.60;70.65;102364.75;4956073;28;45312;-55
2022/11/11 06:43:02;;;;;;;;;10.50;7.25;;;;;10.73;70.51;102397.19;4954574;28;45508;-55
2022/11/11 06:45:29;;;;;;;;;8.25;7.00;;;;;10.74;70.60;102401.66;4956050;28;46292;-56
2022/11/11 06:47:54;;;;;;;;;3.20;3.20;;;;;10.78;71.04;102405.78;4955516;28;45350;-57
2022/11/11 06:50:20;;;;;;;;;7.00;7.00;;;;;10.77;70.52;102410.41;4956121;28;45501;-55
2022/11/11 06:52:46;;;;;;;;;7.00;6.00;;;;;10.81;71.17;102427.41;4956110;28;45621;-53
2022/11/11 06:55:11;;;;;;;;;8.00;8.00;;;;;10.82;71.24;102423.63;4955747;28;46352;-55
2022/11/11 06:57:37;;;;;;;;;7.25;7.25;;;;;10.74;71.28;102409.91;4965905;28;45450;-55
2022/11/11 07:00:04;;;;;;;;;7.50;7.00;;;;;10.83;70.82;102422.59;4974807;28;45487;-56
2022/11/11 07:02:29;;;;;;;;;9.00;7.60;;;;;10.87;70.71;102423.97;4975269;28;45611;-56
2022/11/11 07:04:55;;;;;;;;;8.00;6.50;;;;;10.88;71.46;102425.69;4975088;28;46348;-55
2022/11/11 07:07:20;;;;;;;;;7.00;6.00;;;;;10.87;71.48;102420.38;4974776;28;45142;-55
2022/11/11 07:09:46;;;;;;;;;9.00;8.00;;;;;10.91;71.11;102428.09;4975350;28;45157;-56
2022/11/11 07:12:11;;;;;;;;;7.25;7.25;;;;;10.60;71.74;102387.59;4975124;28;45644;-58
2022/11/11 07:14:37;;;;;;;;;7.50;7.50;;;;;10.84;71.21;102422.41;4975102;28;46423;-58
2022/11/11 07:17:03;;;;;;;;;13.00;10.00;;;;;10.81;70.97;102425.53;4974674;28;45346;-56
2022/11/11 07:19:29;;;;;;;;;9.60;8.60;;;;;10.64;71.78;102399.97;4975077;28;45311;-55
2022/11/11 07:21:54;;;;;;;;;6.25;4.00;;;;;10.76;72.10;102421.56;4975109;28;45430;-55
2022/11/11 07:24:20;;;;;;;;;6.00;6.00;;;;;10.55;71.98;102371.66;4974324;28;45540;-57
2022/11/11 07:26:45;;;;;;;;;8.25;8.25;;;;;10.79;71.88;102402.84;4975049;28;45493;-57
2022/11/11 07:29:16;;;;;;;;;8.75;8.75;;;;;10.78;71.59;102408.53;5006866;28;45407;-57
2022/11/11 07:31:42;;;;;;;;;9.60;7.80;;;;;10.62;72.08;102385.53;4975392;28;45759;-57
2022/11/11 07:34:07;;;;;;;;;8.00;6.50;;;;;10.79;72.41;102404.75;4976326;28;47426;-57
2022/11/11 07:36:33;;;;;;;;;10.00;7.75;;;;;10.81;72.31;102420.03;4976786;28;45437;-58
2022/11/11 07:38:58;;;;;;;;;9.00;8.75;;;;;10.85;72.08;102409.56;4978325;28;45411;-58
2022/11/11 07:41:24;;;;;;;;;9.50;8.25;;;;;10.90;72.24;102409.91;4978567;28;45463;-56
2022/11/11 07:43:49;;;;;;;;;11.25;9.25;;;;;10.39;71.90;102325.81;4978001;28;45876;-55
2022/11/11 07:46:15;;;;;;;;;10.50;9.50;;;;;10.76;71.44;102372.13;4978030;28;45437;-55
2022/11/11 07:48:40;;;;;;;;;13.50;10.50;;;;;10.94;71.30;102405.75;4978170;28;45366;-55
2022/11/11 07:51:06;;;;;;;;;9.75;8.00;;;;;10.92;71.95;102402.34;4978646;28;45360;-56
2022/11/11 07:53:31;;;;;;;;;12.25;9.75;;;;;11.00;71.59;102395.13;4977661;28;46272;-57
2022/11/11 07:55:57;;;;;;;;;10.00;8.75;;;;;11.01;71.45;102403.19;4977963;28;45362;-57
2022/11/11 07:58:22;;;;;;;;;11.50;9.00;;;;;10.95;71.21;102406.63;4960372;28;45308;-53
2022/11/11 08:00:48;;;;;;;;;9.75;8.00;;;;;10.41;71.66;102312.75;4958752;28;45536;-56
2022/11/11 08:03:13;;;;;;;;;10.00;7.50;;;;;11.05;71.36;102418.28;4958205;28;45403;-56
2022/11/11 08:05:39;;;;;;;;;9.25;8.25;;;;;11.04;71.48;102402.81;4958290;28;45421;-57
2022/11/11 08:08:07;;;;;;;;;12.50;11.25;;;;;10.88;71.99;102368.00;4958482;28;45266;-53
2022/11/11 08:10:33;;;;;;;;;11.60;11.60;;;;;11.10;71.34;102402.13;4958716;28;45209;-58
2022/11/11 08:15:42;;;;;;;;;12.40;11.00;;;;;11.11;70.89;102409.34;4957315;28;45202;-55
2022/11/11 08:18:08;;;;;;;;;15.00;10.75;;;;;11.19;71.55;102419.47;4956961;28;45545;-57
2022/11/11 08:20:34;;;;;;;;;11.00;10.00;;;;;11.21;70.95;102413.81;4956948;28;45447;-57
2022/11/11 08:22:59;;;;;;;;;9.75;8.00;;;;;11.21;71.12;102420.13;4957830;28;45448;-57
2022/11/11 08:25:25;;;;;;;;;12.00;9.00;;;;;11.18;70.57;102417.75;4958089;28;45493;-55
2022/11/11 08:27:58;;;;;;;;;13.20;10.60;;;;;11.22;71.03;102419.09;4956289;28;45430;-57
2022/11/11 08:30:23;;;;;;;;;9.20;9.00;;;;;11.19;70.63;102402.97;4958460;28;45470;-57
2022/11/11 08:33:02;;;;;;;;;10.50;10.00;;;;;11.24;70.66;102413.44;4957099;28;45721;-56
2022/11/11 08:35:27;;;;;;;;;11.80;9.00;;;;;11.23;70.96;102418.09;4956341;28;45449;-58
2022/11/11 08:37:53;;;;;;;;;10.75;10.75;;;;;11.22;70.83;102413.59;4957765;28;45350;-56
2022/11/11 08:40:19;;;;;;;;;11.00;9.75;;;;;11.04;70.70;102391.00;4957654;28;45545;-51
2022/11/11 08:42:44;;;;;;;;;9.00;8.00;;;;;10.93;70.96;102383.94;4956043;28;48495;-54
2022/11/11 08:45:10;;;;;;;;;11.25;7.00;;;;;11.16;70.63;102419.81;4955670;28;45497;-55
2022/11/11 08:47:35;;;;;;;;;13.00;11.50;;;;;11.18;71.21;102427.88;4964423;28;45319;-53
2022/11/11 08:50:01;;;;;;;;;10.25;10.25;;;;;10.98;71.50;102401.66;4975227;28;45742;-52
2022/11/11 08:52:27;;;;;;;;;10.00;10.00;;;;;11.15;70.65;102423.59;4976763;28;46967;-56
2022/11/11 08:54:53;;;;;;;;;13.50;12.25;;;;;11.15;71.23;102431.00;4975536;28;45375;-54
2022/11/11 08:57:18;;;;;;;;;14.00;12.75;;;;;11.10;71.27;102442.50;4976805;28;45432;-55
2022/11/11 08:59:43;;;;;;;;;9.75;9.25;;;;;11.10;71.09;102437.84;4975088;28;45359;-53
2022/11/11 09:02:12;;;;;;;;;13.75;10.00;;;;;11.13;71.59;102436.66;4975634;28;45711;-54
2022/11/11 09:04:38;;;;;;;;;16.80;14.60;;;;;11.10;71.01;102439.75;4974315;28;45288;-52
2022/11/11 09:07:05;;;;;;;;;14.20;12.00;;;;;11.02;71.89;102450.75;4975619;28;45226;-55
2022/11/11 09:09:30;;;;;;;;;17.20;14.00;;;;;11.02;71.29;102450.75;4976126;28;45572;-51
2022/11/11 09:11:56;;;;;;;;;10.50;10.50;;;;;11.00;71.68;102452.81;4975946;28;45578;-59
2022/11/11 09:14:21;;;;;;;;;11.25;10.25;;;;;10.98;72.09;102444.72;4976559;28;45331;-55
2022/11/11 09:16:47;;;;;;;;;12.50;10.25;;;;;10.87;71.99;102443.19;4976588;28;45418;-55
2022/11/11 09:19:13;;;;;;;;;7.25;7.25;;;;;10.94;72.32;102448.88;4942669;28;45571;-56
2022/11/11 09:21:38;;;;;;;;;14.80;11.20;;;;;10.95;72.66;102440.44;4976196;28;46199;-54
2022/11/11 09:24:04;;;;;;;;;9.25;5.75;;;;;10.97;72.16;102443.03;4971117;28;45797;-57
2022/11/11 09:26:33;;;;;;;;;10.25;9.25;;;;;11.06;71.78;102452.13;4969671;28;45435;-57
2022/11/11 09:28:59;;;;;;;;;8.20;7.40;;;;;11.09;71.32;102454.50;4943457;28;45474;-57
2022/11/11 09:31:25;;;;;;;;;7.50;7.00;;;;;11.12;71.76;102456.94;4954344;28;46641;-58
2022/11/11 09:33:50;;;;;;;;;9.50;6.00;;;;;11.02;71.82;102453.47;4963473;28;45446;-53
2022/11/11 09:36:16;;;;;;;;;9.00;9.00;;;;;11.03;71.43;102447.81;4994716;28;45358;-56
2022/11/11 09:38:42;;;;;;;;;9.25;8.00;;;;;10.91;71.00;102439.09;4992818;28;45567;-57
2022/11/11 09:41:10;;;;;;;;;8.00;6.75;;;;;11.09;70.97;102451.75;4960701;28;46325;-55
2022/11/11 09:43:51;;;;;;;;;10.20;9.40;;;;;11.13;71.56;102447.66;4968271;28;45878;-58
2022/11/11 09:46:33;;;;;;;;;6.80;6.00;;;;;11.16;70.82;102452.78;4974798;28;45374;-57
2022/11/11 09:49:20;;;;;;;;;11.60;8.60;;;;;11.24;70.79;102458.28;4973219;28;45425;-54
2022/11/11 09:51:54;;;;;;;;;8.80;7.40;;;;;11.14;70.55;102430.13;4966124;28;45401;-52
2022/11/11 09:54:32;;;;;;;;;12.00;10.80;;;;;11.34;69.80;102465.47;4954549;28;45411;-56
2022/11/11 09:56:59;;;;;;;;;5.60;5.00;;;;;11.35;69.81;102464.44;4952859;28;45383;-55
2022/11/11 09:59:29;;;;;;;;;9.20;7.60;;;;;11.36;69.80;102464.25;4956753;28;45927;-56
2022/11/11 10:01:56;;;;;;;;;10.80;8.60;;;;;11.37;69.63;102451.38;4973158;28;45396;-54
2022/11/11 10:04:31;;;;;;;;;8.40;8.40;;;;;11.19;69.81;102432.34;4952676;28;45290;-58
2022/11/11 10:07:24;;;;;;;;;9.00;9.00;;;;;11.38;69.94;102464.09;4996857;28;45380;-56
2022/11/11 10:10:17;;;;;;;;;9.20;9.20;;;;;11.42;70.32;102468.19;4961786;28;45361;-56
2022/11/11 10:12:48;;;;;;;;;10.60;9.20;;;;;11.41;70.13;102469.22;4950882;28;45854;-56
2022/11/11 10:15:13;;;;;;;;;9.60;9.60;;;;;11.43;70.29;102464.44;4970405;28;45530;-55
2022/11/11 10:17:49;;;;;;;;;11.00;10.00;;;;;10.81;69.70;102373.34;4967779;28;45440;-55
2022/11/11 10:20:22;;;;;;;;;10.60;10.60;;;;;11.40;70.08;102464.78;4967864;28;45445;-55
2022/11/11 10:22:50;;;;;;;;;10.80;10.60;;;;;11.38;69.83;102472.34;4955078;28;46620;-55
2022/11/11 10:25:23;;;;;;;;;8.00;6.00;;;;;11.40;70.10;102467.53;4937028;28;45746;-55
2022/11/11 10:27:51;;;;;;;;;16.20;15.40;;;;;11.28;70.35;102444.19;4953962;28;45422;-59
2022/11/11 10:30:19;;;;;;;;;9.80;8.20;;;;;11.43;69.67;102458.94;4956836;28;45619;-59
2022/11/11 10:32:46;;;;;;;;;8.20;8.20;;;;;11.51;69.11;102471.78;4956899;28;46023;-56
2022/11/11 10:35:17;;;;;;;;;8.40;7.20;;;;;11.53;68.91;102465.09;4941304;28;45352;-57
2022/11/11 10:37:42;;;;;;;;;11.40;9.60;;;;;11.51;69.05;102452.53;4966768;28;45862;-57
2022/11/11 10:40:18;;;;;;;;;11.00;10.00;;;;;11.58;69.32;102460.97;4971711;28;45538;-57
2022/11/11 10:42:43;;;;;;;;;11.00;10.20;;;;;11.41;69.24;102433.50;4974027;28;45774;-57
2022/11/11 10:45:39;;;;;;;;;10.00;10.00;;;;;11.56;69.22;102466.63;4974273;28;45441;-57
2022/11/11 10:48:08;;;;;;;;;16.00;10.80;;;;;11.63;69.27;102451.13;4972068;28;45289;-57
2022/11/11 10:50:41;;;;;;;;;12.80;10.60;;;;;11.51;68.97;102420.41;4938782;28;45349;-56
2022/11/11 10:53:12;;;;;;;;;10.40;9.00;;;;;11.82;68.68;102456.38;4952718;28;45566;-53
2022/11/11 10:55:43;;;;;;;;;11.80;11.80;;;;;11.92;68.42;102463.38;4971258;28;45498;-56
2022/11/11 10:58:08;;;;;;;;;12.00;10.80;;;;;12.06;67.39;102453.56;4950954;28;45741;-55
2022/11/11 11:00:34;;;;;;;;;11.50;9.75;;;;;12.23;67.26;102458.97;4954646;28;45363;-55
2022/11/11 11:03:05;;;;;;;;;14.00;11.25;;;;;12.22;66.88;102461.91;4953351;28;46010;-54
2022/11/11 11:05:41;;;;;;;;;14.20;11.00;;;;;12.16;66.98;102467.09;4964334;28;45345;-56
2022/11/11 11:08:18;;;;;;;;;12.40;10.40;;;;;12.17;67.22;102440.44;4975432;28;45328;-57
2022/11/11 11:10:49;;;;;;;;;11.20;10.80;;;;;12.73;65.65;102450.38;4975902;28;45422;-56
2022/11/11 11:13:17;;;;;;;;;11.00;11.00;;;;;13.15;64.30;102446.19;4973151;28;46922;-60
2022/11/11 11:15:47;;;;;;;;;13.60;12.40;;;;;13.35;64.12;102444.78;4958150;28;45495;-56
2022/11/11 11:18:14;;;;;;;;;11.40;11.00;;;;;13.09;63.72;102454.34;4974642;28;45596;-57
2022/11/11 11:21:00;;;;;;;;;13.00;11.00;;;;;13.01;64.27;102442.38;4994508;28;45362;-57
2022/11/11 11:23:37;;;;;;;;;15.80;12.80;;;;;13.04;64.18;102441.16;4970443;28;46349;-57
2022/11/11 11:26:04;;;;;;;;;13.00;13.00;;;;;12.97;64.45;102437.44;4975628;28;45332;-59
2022/11/11 11:28:29;;;;;;;;;13.20;13.20;;;;;12.85;64.75;102435.09;4958423;28;45540;-57
2022/11/11 11:31:05;;;;;;;;;18.25;18.25;;;;;12.84;65.22;102438.91;4991503;28;45409;-58
2022/11/11 11:33:53;;;;;;;;;14.20;12.60;;;;;12.63;65.07;102406.53;4975670;28;45443;-60
2022/11/11 11:36:18;;;;;;;;;15.20;12.80;;;;;12.80;65.58;102434.81;4976813;28;45291;-58
2022/11/11 11:38:46;;;;;;;;;17.25;15.75;;;;;12.82;65.53;102431.88;4976868;28;45299;-59
2022/11/11 11:41:12;;;;;;;;;13.00;13.00;;;;;12.76;65.38;102419.69;4972705;28;45960;-57
2022/11/11 11:43:38;;;;;;;;;15.50;14.00;;;;;12.96;64.80;102422.78;4956841;28;45407;-58
2022/11/11 11:46:33;;;;;;;;;18.00;16.40;;;;;13.12;64.61;102430.03;4948889;28;45527;-60
2022/11/11 11:49:32;;;;;;;;;12.60;12.60;;;;;13.52;63.67;102421.53;4972903;28;45452;-60
2022/11/11 11:52:04;;;;;;;;;18.00;16.20;;;;;13.93;62.73;102417.38;4974143;28;45482;-56
2022/11/11 11:54:32;;;;;;;;;15.00;14.40;;;;;14.29;61.40;102398.25;4964994;28;48168;-56
2022/11/11 11:57:00;;;;;;;;;15.20;15.20;;;;;18.27;53.75;102393.59;4974514;28;45394;-54
2022/11/11 12:00:01;;;;;;;;;17.60;16.60;;;;;20.58;47.54;102380.53;4960241;28;45480;-56
2022/11/11 12:02:53;;;;;;;;;14.00;14.00;;;;;20.27;46.56;102376.09;4952682;28;45341;-55
2022/11/11 12:05:36;;;;;;;;;18.60;16.20;;;;;19.30;47.39;102371.13;4957877;28;45725;-52
2022/11/11 12:08:07;;;;;;;;;14.40;13.60;;;;;18.53;49.54;102392.53;4973876;28;45418;-54
2022/11/11 12:10:38;;;;;;;;;18.80;16.00;;;;;17.68;51.41;102388.97;4962387;28;45364;-53
2022/11/11 12:13:33;;;;;;;;;17.60;14.80;;;;;16.83;53.08;102362.91;4956631;28;45815;-57
2022/11/11 12:16:06;;;;;;;;;15.80;12.20;;;;;16.48;54.04;102394.44;4936792;28;46632;-56
2022/11/11 12:18:53;;;;;;;;;15.60;15.60;;;;;16.09;54.54;102385.00;4971863;28;45731;-57
2022/11/11 12:21:21;;;;;;;;;17.20;14.40;;;;;15.62;56.12;102395.88;4976518;28;45594;-53
2022/11/11 12:23:53;;;;;;;;;17.40;15.00;;;;;15.28;56.83;102391.03;4974856;28;45538;-55
2022/11/11 12:26:30;;;;;;;;;19.20;16.40;;;;;15.15;57.58;102394.53;4974003;28;47247;-59
2022/11/11 12:29:21;;;;;;;;;18.60;16.60;;;;;14.90;58.25;102385.88;4975753;28;45499;-56
2022/11/11 12:31:58;;;;;;;;;18.60;16.00;;;;;14.77;58.53;102381.94;4976193;28;45372;-52
2022/11/11 12:34:51;;;;;;;;;19.60;16.20;;;;;14.64;59.03;102370.75;4977645;28;45461;-50
2022/11/11 12:37:28;;;;;;;;;15.60;13.60;;;;;14.57;59.60;102372.59;4976044;28;45388;-61
2022/11/11 12:40:16;;;;;;;;;15.40;13.40;;;;;14.60;59.81;102370.28;4976927;28;45499;-58
2022/11/11 12:42:58;;;;;;;;;15.60;13.60;;;;;14.34;59.82;102349.66;4977278;28;45874;-59